createdAt,value
2022-08-02T00:00:08.520Z,90.86
2022-08-02T00:01:08.503Z,90.96
2022-08-02T00:02:07.929Z,90.96
2022-08-02T00:03:07.654Z,90.86
2022-08-02T00:04:07.630Z,90.96
2022-08-02T00:05:07.625Z,91.06
2022-08-02T00:06:07.645Z,91.20
2022-08-02T00:07:07.587Z,91.41
2022-08-02T00:08:08.514Z,91.41
2022-08-02T00:09:08.405Z,91.41
2022-08-02T00:10:07.608Z,91.51
2022-08-02T00:11:07.576Z,91.51
2022-08-02T00:12:07.688Z,91.51
2022-08-02T00:13:08.196Z,91.61
2022-08-02T00:14:07.557Z,91.61
2022-08-02T00:15:07.501Z,91.51
2022-08-02T00:16:08.264Z,91.55
2022-08-02T00:17:07.476Z,91.55
2022-08-02T00:18:08.237Z,91.96
2022-08-02T00:19:07.435Z,91.96
2022-08-02T00:20:07.444Z,91.96
2022-08-02T00:21:07.534Z,91.96
2022-08-02T00:22:08.614Z,91.86
2022-08-02T00:23:08.126Z,91.75
2022-08-02T00:24:29.261Z,91.65
2022-08-02T00:25:08.412Z,91.55
2022-08-02T00:26:07.386Z,91.55
2022-08-02T00:27:09.643Z,91.45
2022-08-02T00:28:08.125Z,91.45
2022-08-02T00:29:08.286Z,91.60
2022-08-02T00:30:07.350Z,91.65
2022-08-02T00:31:07.602Z,91.90
2022-08-02T00:32:08.411Z,91.90
2022-08-02T00:33:08.156Z,91.90
2022-08-02T00:34:28.798Z,92.00
2022-08-02T00:35:08.305Z,92.30
2022-08-02T00:36:07.267Z,92.10
2022-08-02T00:37:07.335Z,91.90
2022-08-02T00:38:07.990Z,91.69
2022-08-02T00:39:08.093Z,91.69
2022-08-02T00:40:08.486Z,91.80
2022-08-02T00:41:07.199Z,91.69
2022-08-02T00:42:07.297Z,91.69
2022-08-02T00:43:07.963Z,91.80
2022-08-02T00:44:07.911Z,91.90
2022-08-02T00:45:08.057Z,92.00
2022-08-02T00:46:07.714Z,92.00
2022-08-02T00:47:07.836Z,92.00
2022-08-02T00:48:07.994Z,91.80
2022-08-02T00:49:07.943Z,91.69
2022-08-02T00:50:07.875Z,91.69
2022-08-02T00:51:07.966Z,91.69
2022-08-02T00:52:08.013Z,91.74
2022-08-02T00:53:07.134Z,91.84
2022-08-02T00:54:07.147Z,91.94
2022-08-02T00:55:07.146Z,91.94
2022-08-02T00:56:07.264Z,92.04
2022-08-02T00:57:07.258Z,92.14
2022-08-02T00:58:07.396Z,92.35
2022-08-02T00:59:07.376Z,92.35
2022-08-02T01:00:07.872Z,92.14
2022-08-02T01:01:07.032Z,92.04
2022-08-02T01:02:07.766Z,92.04
2022-08-02T01:03:07.835Z,92.04
2022-08-02T01:04:06.946Z,92.04
2022-08-02T01:05:06.921Z,91.94
2022-08-02T01:06:11.623Z,91.94
2022-08-02T01:07:13.557Z,92.04
2022-08-02T01:08:08.637Z,92.14
2022-08-02T01:09:06.934Z,92.14
2022-08-02T01:10:07.681Z,92.19
2022-08-02T01:11:07.576Z,92.19
2022-08-02T01:12:07.674Z,92.19
2022-08-02T01:13:07.646Z,92.29
2022-08-02T01:14:06.849Z,92.40
2022-08-02T01:15:07.707Z,92.49
2022-08-02T01:16:07.626Z,92.29
2022-08-02T01:17:07.514Z,92.29
2022-08-02T01:18:06.809Z,92.29
2022-08-02T01:19:06.913Z,92.40
2022-08-02T01:20:07.765Z,92.40
2022-08-02T01:21:07.635Z,92.29
2022-08-02T01:22:06.759Z,92.29
2022-08-02T01:23:07.468Z,92.40
2022-08-02T01:24:07.395Z,92.40
2022-08-02T01:25:07.520Z,92.49
2022-08-02T01:26:06.761Z,92.40
2022-08-02T01:27:06.676Z,92.40
2022-08-02T01:28:07.491Z,92.29
2022-08-02T01:29:06.656Z,92.29
2022-08-02T01:30:06.645Z,92.19
2022-08-02T01:31:06.876Z,91.88
2022-08-02T01:32:06.886Z,91.68
2022-08-02T01:33:07.513Z,91.68
2022-08-02T01:34:06.906Z,91.58
2022-08-02T01:35:07.106Z,91.48
2022-08-02T01:36:07.476Z,91.58
2022-08-02T01:37:06.928Z,91.68
2022-08-02T01:38:07.094Z,91.68
2022-08-02T01:39:06.565Z,91.88
2022-08-02T01:40:06.545Z,91.99
2022-08-02T01:41:06.537Z,91.99
2022-08-02T01:42:07.427Z,91.99
2022-08-02T01:43:06.506Z,91.88
2022-08-02T01:44:08.253Z,91.88
2022-08-02T01:45:06.775Z,91.88
2022-08-02T01:46:07.286Z,91.99
2022-08-02T01:47:07.195Z,92.03
2022-08-02T01:48:07.363Z,92.03
2022-08-02T01:49:09.456Z,92.13
2022-08-02T01:50:06.907Z,92.33
2022-08-02T01:51:07.320Z,92.54
2022-08-02T01:52:06.928Z,92.54
2022-08-02T01:53:06.926Z,92.64
2022-08-02T01:54:06.839Z,92.64
2022-08-02T01:55:06.393Z,92.74
2022-08-02T01:56:06.435Z,92.74
2022-08-02T01:57:07.256Z,92.84
2022-08-02T01:58:07.155Z,92.94
2022-08-02T01:59:07.068Z,93.05
2022-08-02T02:00:06.358Z,93.05
2022-08-02T02:01:06.327Z,93.05
2022-08-02T02:02:07.040Z,93.05
2022-08-02T02:03:07.195Z,93.05
2022-08-02T02:04:07.103Z,93.15
2022-08-02T02:05:06.996Z,93.05
2022-08-02T02:06:07.156Z,93.15
2022-08-02T02:07:06.508Z,93.15
2022-08-02T02:08:06.966Z,93.15
2022-08-02T02:09:07.126Z,93.15
2022-08-02T02:10:07.063Z,93.25
2022-08-02T02:12:13.319Z,93.29
2022-08-02T02:12:13.876Z,93.25
2022-08-02T02:13:08.026Z,93.40
2022-08-02T02:14:06.204Z,93.29
2022-08-02T02:15:07.065Z,93.29
2022-08-02T02:16:06.969Z,93.29
2022-08-02T02:17:06.126Z,93.29
2022-08-02T02:18:12.697Z,93.29
2022-08-02T02:19:07.965Z,93.29
2022-08-02T02:20:06.840Z,93.29
2022-08-02T02:21:06.086Z,93.29
2022-08-02T02:22:06.906Z,93.29
2022-08-02T02:23:06.807Z,93.29
2022-08-02T02:24:09.058Z,93.40
2022-08-02T02:25:06.878Z,93.54
2022-08-02T02:26:06.777Z,93.64
2022-08-02T02:27:06.645Z,93.74
2022-08-02T02:28:06.847Z,93.85
2022-08-02T02:29:06.902Z,93.95
2022-08-02T02:30:05.979Z,93.85
2022-08-02T02:31:05.984Z,93.85
2022-08-02T02:32:05.968Z,93.85
2022-08-02T02:33:05.967Z,93.74
2022-08-02T02:34:05.948Z,93.54
2022-08-02T02:35:05.986Z,93.54
2022-08-02T02:36:05.916Z,93.44
2022-08-02T02:37:05.936Z,93.44
2022-08-02T02:38:06.670Z,93.33
2022-08-02T02:39:10.249Z,93.24
2022-08-02T02:40:07.746Z,93.24
2022-08-02T02:41:05.918Z,93.24
2022-08-02T02:42:05.927Z,93.33
2022-08-02T02:43:05.846Z,93.33
2022-08-02T02:44:05.843Z,93.44
2022-08-02T02:45:06.527Z,93.44
2022-08-02T02:46:05.847Z,93.33
2022-08-02T02:47:06.561Z,93.33
2022-08-02T02:48:05.776Z,93.33
2022-08-02T02:49:05.866Z,93.33
2022-08-02T02:50:05.886Z,93.28
2022-08-02T02:51:05.766Z,93.18
2022-08-02T02:52:05.757Z,93.38
2022-08-02T02:53:05.752Z,93.48
2022-08-02T02:54:30.633Z,93.48
2022-08-02T02:55:06.727Z,93.38
2022-08-02T02:56:05.747Z,93.28
2022-08-02T02:57:05.717Z,93.18
2022-08-02T02:58:06.517Z,93.18
2022-08-02T02:59:05.737Z,93.18
2022-08-02T03:00:05.647Z,93.28
2022-08-02T03:01:05.741Z,93.38
2022-08-02T03:02:06.058Z,93.38
2022-08-02T03:03:06.066Z,93.18
2022-08-02T03:04:06.457Z,93.07
2022-08-02T03:05:05.619Z,93.12
2022-08-02T03:06:15.828Z,93.12
2022-08-02T03:07:06.606Z,93.22
2022-08-02T03:08:05.572Z,93.32
2022-08-02T03:09:06.486Z,93.32
2022-08-02T03:10:05.546Z,93.32
2022-08-02T03:11:05.547Z,93.22
2022-08-02T03:12:05.517Z,93.22
2022-08-02T03:13:05.529Z,93.22
2022-08-02T03:14:05.937Z,93.22
2022-08-02T03:15:05.955Z,93.32
2022-08-02T03:16:05.473Z,93.32
2022-08-02T03:17:05.486Z,93.32
2022-08-02T03:18:06.088Z,93.32
2022-08-02T03:19:05.466Z,93.32
2022-08-02T03:20:06.226Z,93.32
2022-08-02T03:21:05.433Z,93.43
2022-08-02T03:22:05.417Z,93.67
2022-08-02T03:23:05.427Z,93.77
2022-08-02T03:24:05.412Z,93.84
2022-08-02T03:25:05.410Z,93.84
2022-08-02T03:26:06.135Z,93.73
2022-08-02T03:27:05.418Z,93.88
2022-08-02T03:28:05.348Z,93.88
2022-08-02T03:29:10.324Z,93.88
2022-08-02T03:30:06.326Z,93.88
2022-08-02T03:31:06.167Z,93.77
2022-08-02T03:32:05.336Z,93.57
2022-08-02T03:33:05.306Z,93.57
2022-08-02T03:34:05.278Z,93.67
2022-08-02T03:35:05.276Z,93.67
2022-08-02T03:36:05.258Z,93.67
2022-08-02T03:37:05.265Z,93.57
2022-08-02T03:38:05.237Z,93.57
2022-08-02T03:39:05.244Z,93.57
2022-08-02T03:40:05.217Z,93.57
2022-08-02T03:41:05.235Z,93.57
2022-08-02T03:42:05.930Z,93.57
2022-08-02T03:43:05.216Z,93.47
2022-08-02T03:44:05.176Z,93.57
2022-08-02T03:45:08.785Z,93.57
2022-08-02T03:46:05.146Z,93.47
2022-08-02T03:47:05.916Z,93.57
2022-08-02T03:48:34.946Z,93.67
2022-08-02T03:49:06.240Z,93.67
2022-08-02T03:50:05.106Z,93.57
2022-08-02T03:51:05.105Z,93.57
2022-08-02T03:52:05.089Z,93.67
2022-08-02T03:53:05.117Z,93.67
2022-08-02T03:54:05.066Z,93.67
2022-08-02T03:55:05.057Z,93.77
2022-08-02T03:56:05.034Z,93.77
2022-08-02T03:57:05.077Z,93.77
2022-08-02T03:58:05.407Z,93.67
2022-08-02T03:59:05.217Z,93.57
2022-08-02T04:00:05.028Z,93.57
2022-08-02T04:01:05.084Z,93.47
2022-08-02T04:02:04.969Z,93.37
2022-08-02T04:03:04.976Z,93.26
2022-08-02T04:04:04.947Z,93.26
2022-08-02T04:05:04.970Z,93.26
2022-08-02T04:06:05.118Z,93.37
2022-08-02T04:07:07.428Z,93.37
2022-08-02T04:08:36.749Z,93.47
2022-08-02T04:09:05.913Z,93.37
2022-08-02T04:10:04.877Z,93.37
2022-08-02T04:11:04.886Z,93.47
2022-08-02T04:12:04.865Z,93.43
2022-08-02T04:13:04.866Z,93.32
2022-08-02T04:14:04.837Z,93.22
2022-08-02T04:15:04.841Z,93.02
2022-08-02T04:16:04.818Z,93.02
2022-08-02T04:17:04.840Z,92.91
2022-08-02T04:18:04.829Z,92.81
2022-08-02T04:19:04.800Z,92.71
2022-08-02T04:20:04.766Z,92.57
2022-08-02T04:21:04.797Z,92.46
2022-08-02T04:22:04.761Z,92.36
2022-08-02T04:23:04.976Z,92.36
2022-08-02T04:24:04.729Z,92.16
2022-08-02T04:25:04.727Z,92.05
2022-08-02T04:26:04.731Z,91.75
2022-08-02T04:27:06.860Z,91.50
2022-08-02T04:28:17.195Z,91.50
2022-08-02T04:29:05.690Z,91.40
2022-08-02T04:30:04.678Z,91.50
2022-08-02T04:31:04.659Z,91.40
2022-08-02T04:32:04.657Z,91.40
2022-08-02T04:33:04.646Z,91.30
2022-08-02T04:34:04.616Z,91.30
2022-08-02T04:35:19.009Z,91.30
2022-08-02T04:36:05.599Z,91.20
2022-08-02T04:37:04.598Z,90.89
2022-08-02T04:38:08.353Z,90.89
2022-08-02T04:39:05.588Z,90.89
2022-08-02T04:40:04.557Z,90.89
2022-08-02T04:41:04.556Z,90.99
2022-08-02T04:42:04.529Z,90.99
2022-08-02T04:43:04.538Z,90.99
2022-08-02T04:44:04.518Z,90.89
2022-08-02T04:45:04.515Z,90.99
2022-08-02T04:46:04.488Z,91.09
2022-08-02T04:47:06.734Z,91.20
2022-08-02T04:48:05.573Z,91.05
2022-08-02T04:49:05.049Z,91.16
2022-08-02T04:50:04.456Z,91.16
2022-08-02T04:51:04.447Z,91.46
2022-08-02T04:52:04.429Z,91.46
2022-08-02T04:53:04.427Z,91.56
2022-08-02T04:54:06.319Z,91.56
2022-08-02T04:55:05.407Z,91.46
2022-08-02T04:56:04.384Z,91.36
2022-08-02T04:57:04.378Z,91.05
2022-08-02T04:58:18.553Z,90.60
2022-08-02T04:59:05.371Z,90.30
2022-08-02T05:00:04.375Z,89.99
2022-08-02T05:01:04.421Z,89.89
2022-08-02T05:02:04.314Z,89.79
2022-08-02T05:03:04.317Z,89.59
2022-08-02T05:04:04.297Z,89.24
2022-08-02T05:05:09.830Z,89.24
2022-08-02T05:06:07.652Z,89.14
2022-08-02T05:07:05.679Z,88.53
2022-08-02T05:08:04.255Z,88.22
2022-08-02T05:09:04.667Z,87.87
2022-08-02T05:10:04.233Z,88.08
2022-08-02T05:11:04.234Z,88.08
2022-08-02T05:12:04.207Z,87.87
2022-08-02T05:13:04.217Z,87.57
2022-08-02T05:14:04.178Z,87.23
2022-08-02T05:15:04.188Z,86.82
2022-08-02T05:16:04.157Z,86.82
2022-08-02T05:17:04.170Z,86.61
2022-08-02T05:18:04.151Z,86.27
2022-08-02T05:19:04.142Z,85.86
2022-08-02T05:20:04.107Z,85.52
2022-08-02T05:21:04.117Z,85.31
2022-08-02T05:22:04.088Z,84.80
2022-08-02T05:23:04.095Z,84.26
2022-08-02T05:24:04.071Z,83.95
2022-08-02T05:25:04.066Z,83.71
2022-08-02T05:26:04.046Z,82.19
2022-08-02T05:27:17.168Z,81.85
2022-08-02T05:28:08.333Z,81.85
2022-08-02T05:29:05.857Z,81.71
2022-08-02T05:30:03.997Z,80.99
2022-08-02T05:31:03.998Z,80.39
2022-08-02T05:32:03.980Z,80.08
2022-08-02T05:33:03.976Z,80.35
2022-08-02T05:34:06.590Z,80.25
2022-08-02T05:35:03.974Z,80.25
2022-08-02T05:36:03.935Z,80.15
2022-08-02T05:37:03.928Z,80.25
2022-08-02T05:38:04.948Z,80.55
2022-08-02T05:39:05.417Z,80.35
2022-08-02T05:40:04.887Z,80.45
2022-08-02T05:41:04.889Z,80.35
2022-08-02T05:42:03.868Z,79.47
2022-08-02T05:43:03.866Z,79.54
2022-08-02T05:44:03.839Z,79.68
2022-08-02T05:45:03.852Z,79.88
2022-08-02T05:46:03.817Z,79.88
2022-08-02T05:47:03.831Z,79.78
2022-08-02T05:48:03.912Z,79.98
2022-08-02T05:49:04.157Z,76.60
2022-08-02T05:50:03.777Z,78.02
2022-08-02T05:51:03.789Z,79.54
2022-08-02T05:52:03.756Z,79.80
2022-08-02T05:53:03.758Z,79.50
2022-08-02T05:54:03.735Z,79.60
2022-08-02T05:55:03.731Z,79.30
2022-08-02T05:56:08.361Z,78.75
2022-08-02T05:57:04.718Z,78.25
2022-08-02T05:58:03.689Z,78.25
2022-08-02T05:59:03.689Z,77.91
2022-08-02T06:00:03.668Z,78.11
2022-08-02T06:01:03.666Z,78.11
2022-08-02T06:02:03.714Z,77.81
2022-08-02T06:03:03.647Z,77.97
2022-08-02T06:04:03.619Z,77.67
2022-08-02T06:05:03.635Z,77.26
2022-08-02T06:06:03.598Z,75.34
2022-08-02T06:07:03.598Z,75.92
2022-08-02T06:08:04.245Z,76.22
2022-08-02T06:09:03.608Z,75.10
2022-08-02T06:10:04.257Z,74.60
2022-08-02T06:11:03.558Z,76.12
2022-08-02T06:12:03.546Z,76.93
2022-08-02T06:13:03.568Z,77.03
2022-08-02T06:14:03.519Z,77.33
2022-08-02T06:15:03.516Z,77.53
2022-08-02T06:16:03.488Z,77.84
2022-08-02T06:17:03.737Z,74.70
2022-08-02T06:18:03.797Z,74.40
2022-08-02T06:19:03.469Z,76.18
2022-08-02T06:20:03.451Z,76.39
2022-08-02T06:22:31.161Z,76.99
2022-08-02T06:22:32.907Z,75.88
2022-08-02T06:23:04.419Z,76.28
2022-08-02T06:24:04.040Z,76.95
2022-08-02T06:25:03.545Z,77.26
2022-08-02T06:26:03.949Z,77.56
2022-08-02T06:27:03.378Z,77.36
2022-08-02T06:28:03.359Z,77.36
2022-08-02T06:29:04.188Z,77.06
2022-08-02T06:30:04.098Z,77.32
2022-08-02T06:31:04.036Z,76.42
2022-08-02T06:32:03.316Z,77.62
2022-08-02T06:33:03.316Z,77.73
2022-08-02T06:34:03.288Z,76.72
2022-08-02T06:35:04.129Z,75.37
2022-08-02T06:36:03.281Z,73.15
2022-08-02T06:37:03.281Z,76.28
2022-08-02T06:38:03.244Z,76.34
2022-08-02T06:39:03.844Z,75.94
2022-08-02T06:40:04.079Z,75.84
2022-08-02T06:41:04.057Z,76.34
2022-08-02T06:42:03.968Z,76.44
2022-08-02T06:43:03.759Z,74.59
2022-08-02T06:44:26.153Z,75.60
2022-08-02T06:45:04.591Z,75.50
2022-08-02T06:46:37.641Z,73.88
2022-08-02T06:47:12.126Z,73.25
2022-08-02T06:48:04.160Z,74.96
2022-08-02T06:49:03.181Z,75.16
2022-08-02T06:50:04.015Z,74.66
2022-08-02T06:51:03.866Z,74.22
2022-08-02T06:52:04.037Z,71.60
2022-08-02T06:53:03.933Z,73.21
2022-08-02T06:54:03.838Z,74.08
2022-08-02T06:55:03.098Z,74.49
2022-08-02T06:56:03.070Z,73.48
2022-08-02T06:57:03.806Z,73.38
2022-08-02T06:58:03.767Z,74.58
2022-08-02T06:59:06.068Z,73.85
2022-08-02T07:00:03.013Z,74.95
2022-08-02T07:01:02.991Z,75.15
2022-08-02T07:02:03.062Z,73.75
2022-08-02T07:03:03.738Z,74.32
2022-08-02T07:04:03.703Z,73.31
2022-08-02T07:05:02.982Z,74.08
2022-08-02T07:06:02.945Z,73.47
2022-08-02T07:07:02.927Z,74.28
2022-08-02T07:08:02.960Z,74.38
2022-08-02T07:09:19.874Z,72.47
2022-08-02T07:10:03.935Z,73.04
2022-08-02T07:11:02.911Z,71.33
2022-08-02T07:12:03.651Z,71.73
2022-08-02T07:13:02.879Z,72.74
2022-08-02T07:14:02.880Z,72.20
2022-08-02T07:15:03.615Z,73.10
2022-08-02T07:16:02.861Z,73.50
2022-08-02T07:17:02.961Z,73.30
2022-08-02T07:18:02.827Z,73.67
2022-08-02T07:19:03.740Z,73.27
2022-08-02T07:20:02.801Z,73.07
2022-08-02T07:21:02.772Z,73.17
2022-08-02T07:22:02.775Z,72.87
2022-08-02T07:23:02.742Z,72.74
2022-08-02T07:24:03.513Z,72.43
2022-08-02T07:25:02.748Z,71.93
2022-08-02T07:26:05.402Z,70.89
2022-08-02T07:27:12.007Z,72.00
2022-08-02T07:28:03.713Z,71.30
2022-08-02T07:29:02.683Z,70.76
2022-08-02T07:30:02.699Z,70.76
2022-08-02T07:31:03.612Z,70.06
2022-08-02T07:32:03.512Z,70.56
2022-08-02T07:33:02.660Z,69.12
2022-08-02T07:34:02.644Z,67.72
2022-08-02T07:35:06.965Z,68.19
2022-08-02T07:36:04.778Z,68.19
2022-08-02T07:37:02.994Z,67.99
2022-08-02T07:38:02.869Z,68.82
2022-08-02T07:39:03.015Z,69.73
2022-08-02T07:40:06.377Z,69.42
2022-08-02T07:41:03.595Z,69.02
2022-08-02T07:42:03.321Z,68.73
2022-08-02T07:43:04.464Z,68.39
2022-08-02T07:44:03.408Z,68.29
2022-08-02T07:45:03.292Z,68.29
2022-08-02T07:46:03.235Z,68.19
2022-08-02T07:47:02.554Z,68.26
2022-08-02T07:48:02.548Z,67.55
2022-08-02T07:49:03.489Z,66.55
2022-08-02T07:50:03.322Z,66.96
2022-08-02T07:51:02.454Z,66.96
2022-08-02T07:52:03.394Z,66.75
2022-08-02T07:53:03.295Z,66.75
2022-08-02T07:54:04.901Z,66.75
2022-08-02T07:55:03.353Z,66.96
2022-08-02T07:56:03.024Z,66.52
2022-08-02T07:57:03.166Z,65.72
2022-08-02T07:58:03.324Z,65.19
2022-08-02T07:59:03.225Z,65.69
2022-08-02T08:00:03.133Z,65.79
2022-08-02T08:01:03.385Z,65.96
2022-08-02T08:02:03.299Z,65.36
2022-08-02T08:03:03.114Z,64.43
2022-08-02T08:04:03.279Z,63.83
2022-08-02T08:05:04.764Z,63.33
2022-08-02T08:06:03.073Z,63.73
2022-08-02T08:07:02.294Z,63.60
2022-08-02T08:08:03.145Z,63.40
2022-08-02T08:09:03.006Z,63.30
2022-08-02T08:10:03.037Z,64.43
2022-08-02T08:11:03.098Z,64.20
2022-08-02T08:12:03.030Z,62.90
2022-08-02T08:13:02.952Z,63.50
2022-08-02T08:14:03.065Z,62.60
2022-08-02T08:15:02.234Z,60.80
2022-08-02T08:16:02.444Z,61.87
2022-08-02T08:17:02.156Z,62.37
2022-08-02T08:18:02.951Z,61.05
2022-08-02T08:19:02.199Z,60.95
2022-08-02T08:20:03.009Z,61.15
2022-08-02T08:21:02.117Z,60.42
2022-08-02T08:22:02.129Z,59.32
2022-08-02T08:23:02.116Z,58.59
2022-08-02T08:24:02.880Z,57.93
2022-08-02T08:25:02.777Z,58.10
2022-08-02T08:26:02.098Z,58.33
2022-08-02T08:27:02.059Z,59.49
2022-08-02T08:28:02.074Z,58.10
2022-08-02T08:29:02.907Z,57.87
2022-08-02T08:30:02.815Z,56.48
2022-08-02T08:31:02.026Z,57.28
2022-08-02T08:32:02.024Z,55.65
2022-08-02T08:33:01.986Z,55.55
2022-08-02T08:34:02.000Z,55.03
2022-08-02T08:35:02.839Z,54.03
2022-08-02T08:36:02.815Z,54.11
2022-08-02T08:37:02.649Z,53.81
2022-08-02T08:38:07.290Z,52.32
2022-08-02T08:39:03.737Z,50.73
2022-08-02T08:40:01.942Z,52.72
2022-08-02T08:41:02.777Z,53.02
2022-08-02T08:42:02.708Z,50.73
2022-08-02T08:43:01.913Z,50.82
2022-08-02T08:44:02.748Z,51.92
2022-08-02T08:45:01.930Z,51.03
2022-08-02T08:46:01.856Z,51.72
2022-08-02T08:47:02.509Z,51.79
2022-08-02T08:48:01.836Z,50.80
2022-08-02T08:49:02.495Z,50.70
2022-08-02T08:50:02.010Z,50.20
2022-08-02T08:51:02.478Z,49.61
2022-08-02T08:52:02.497Z,49.71
2022-08-02T08:53:01.808Z,48.29
2022-08-02T08:54:02.190Z,49.58
2022-08-02T08:55:01.779Z,48.19
2022-08-02T08:56:02.140Z,49.08
2022-08-02T08:57:01.898Z,48.69
2022-08-02T08:58:02.435Z,48.11
2022-08-02T08:59:01.722Z,47.52
2022-08-02T09:00:01.710Z,49.61
2022-08-02T09:01:02.441Z,49.68
2022-08-02T09:02:16.593Z,48.69
2022-08-02T09:03:03.487Z,49.86
2022-08-02T09:04:01.740Z,52.31
2022-08-02T09:05:02.311Z,49.51
2022-08-02T09:06:01.868Z,47.73
2022-08-02T09:07:01.622Z,46.31
2022-08-02T09:08:02.493Z,45.34
2022-08-02T09:09:02.394Z,46.14
2022-08-02T09:10:02.316Z,47.23
2022-08-02T09:11:02.296Z,48.72
2022-08-02T09:12:02.371Z,47.63
2022-08-02T09:13:02.272Z,47.23
2022-08-02T09:14:04.502Z,45.82
2022-08-02T09:15:02.331Z,46.51
2022-08-02T09:16:12.614Z,46.34
2022-08-02T09:17:03.202Z,50.38
2022-08-02T09:18:01.511Z,45.64
2022-08-02T09:19:02.218Z,47.33
2022-08-02T09:20:03.402Z,46.83
2022-08-02T09:21:02.263Z,46.51
2022-08-02T09:22:02.174Z,47.41
2022-08-02T09:23:01.443Z,46.71
2022-08-02T09:24:01.448Z,48.08
2022-08-02T09:25:02.140Z,46.42
2022-08-02T09:26:05.751Z,47.28
2022-08-02T09:27:03.230Z,46.19
2022-08-02T09:28:01.383Z,47.38
2022-08-02T09:29:01.812Z,50.13
2022-08-02T09:30:13.101Z,49.71
2022-08-02T09:31:03.095Z,47.41
2022-08-02T09:32:01.534Z,48.48
2022-08-02T09:33:05.439Z,45.41
2022-08-02T09:34:02.043Z,47.47
2022-08-02T09:35:02.225Z,43.79
2022-08-02T09:36:05.086Z,42.70
2022-08-02T09:37:02.295Z,42.21
2022-08-02T09:38:01.266Z,43.19
2022-08-02T09:39:01.263Z,43.19
2022-08-02T09:40:01.982Z,43.69
2022-08-02T09:41:01.286Z,41.61
2022-08-02T09:42:01.254Z,42.22
2022-08-02T09:43:01.293Z,42.62
2022-08-02T09:44:05.003Z,43.04
2022-08-02T09:45:03.036Z,44.10
2022-08-02T09:46:01.927Z,44.01
2022-08-02T09:47:02.079Z,42.82
2022-08-02T09:48:01.168Z,43.33
2022-08-02T09:49:01.182Z,43.28
2022-08-02T09:50:01.238Z,46.84
2022-08-02T09:51:01.136Z,44.64
2022-08-02T09:52:01.853Z,44.42
2022-08-02T09:53:02.006Z,43.75
2022-08-02T09:54:08.403Z,44.37
2022-08-02T09:55:02.844Z,48.43
2022-08-02T09:56:01.279Z,46.11
2022-08-02T09:57:01.486Z,43.33
2022-08-02T09:58:01.786Z,42.64
2022-08-02T09:59:01.047Z,43.93
2022-08-02T10:00:01.042Z,43.73
2022-08-02T10:01:01.088Z,42.66
2022-08-02T10:02:17.333Z,43.93
2022-08-02T10:03:02.847Z,47.19
2022-08-02T10:04:01.726Z,46.48
2022-08-02T10:05:01.077Z,44.28
2022-08-02T10:06:03.188Z,42.38
2022-08-02T10:07:01.688Z,41.04
2022-08-02T10:08:00.977Z,43.18
2022-08-02T10:09:01.756Z,45.06
2022-08-02T10:10:00.936Z,44.62
2022-08-02T10:11:01.992Z,45.29
2022-08-02T10:12:08.591Z,41.02
2022-08-02T10:13:02.679Z,43.88
2022-08-02T10:14:00.889Z,44.38
2022-08-02T10:15:01.688Z,41.59
2022-08-02T10:16:00.868Z,42.78
2022-08-02T10:17:00.845Z,43.88
2022-08-02T10:18:01.215Z,42.32
2022-08-02T10:19:00.818Z,41.93
2022-08-02T10:20:04.782Z,42.72
2022-08-02T10:21:00.929Z,43.49
2022-08-02T10:22:00.789Z,42.40
2022-08-02T10:23:00.786Z,43.21
2022-08-02T10:24:00.786Z,41.63
2022-08-02T10:25:00.756Z,42.60
2022-08-02T10:26:01.679Z,42.78
2022-08-02T10:27:00.730Z,41.20
2022-08-02T10:28:05.600Z,40.92
2022-08-02T10:29:04.489Z,41.22
2022-08-02T10:30:00.751Z,41.81
2022-08-02T10:31:00.734Z,42.30
2022-08-02T10:32:00.692Z,40.53
2022-08-02T10:33:00.667Z,41.71
2022-08-02T10:34:00.766Z,42.08
2022-08-02T10:35:19.039Z,40.41
2022-08-02T10:36:04.529Z,40.39
2022-08-02T10:37:02.390Z,40.19
2022-08-02T10:38:00.639Z,42.93
2022-08-02T10:39:00.589Z,41.43
2022-08-02T10:40:00.590Z,41.02
2022-08-02T10:41:00.579Z,42.08
2022-08-02T10:42:00.583Z,39.76
2022-08-02T10:43:01.277Z,41.14
2022-08-02T10:44:00.561Z,40.82
2022-08-02T10:45:00.541Z,38.45
2022-08-02T10:46:00.542Z,38.67
2022-08-02T10:47:00.514Z,39.86
2022-08-02T10:48:01.664Z,41.22
2022-08-02T10:49:00.550Z,40.53
2022-08-02T10:50:00.592Z,40.01
2022-08-02T10:51:00.520Z,39.40
2022-08-02T10:52:00.502Z,40.29
2022-08-02T10:53:00.453Z,39.97
2022-08-02T10:54:00.452Z,37.51
2022-08-02T10:55:01.175Z,37.91
2022-08-02T10:56:00.567Z,39.68
2022-08-02T10:57:01.419Z,38.49
2022-08-02T10:58:00.405Z,37.95
2022-08-02T10:59:00.682Z,38.83
2022-08-02T11:00:00.383Z,41.89
2022-08-02T11:01:00.635Z,39.70
2022-08-02T11:02:00.932Z,38.30
2022-08-02T11:03:00.358Z,40.17
2022-08-02T11:04:00.323Z,38.32
2022-08-02T11:05:00.337Z,41.85
2022-08-02T11:06:00.313Z,38.01
2022-08-02T11:07:00.944Z,42.14
2022-08-02T11:08:00.294Z,37.30
2022-08-02T11:09:00.310Z,37.22
2022-08-02T11:10:00.276Z,39.11
2022-08-02T11:11:00.280Z,39.72
2022-08-02T11:12:01.108Z,40.00
2022-08-02T11:13:00.988Z,38.51
2022-08-02T11:14:00.367Z,41.27
2022-08-02T11:15:01.045Z,37.95
2022-08-02T11:16:00.236Z,40.41
2022-08-02T11:17:01.114Z,38.54
2022-08-02T11:18:00.195Z,39.60
2022-08-02T11:19:00.206Z,39.50
2022-08-02T11:20:00.171Z,37.63
2022-08-02T11:21:00.167Z,40.90
2022-08-02T11:22:00.138Z,38.42
2022-08-02T11:23:00.136Z,40.86
2022-08-02T11:24:00.143Z,37.79
2022-08-02T11:25:00.126Z,38.26
2022-08-02T11:26:10.962Z,37.77
2022-08-02T11:27:01.945Z,38.87
2022-08-02T11:28:00.105Z,37.49
2022-08-02T11:29:00.375Z,40.84
2022-08-02T11:30:00.076Z,37.30
2022-08-02T11:31:00.056Z,38.09
2022-08-02T11:32:00.956Z,36.71
2022-08-02T11:33:00.054Z,37.51
2022-08-02T11:34:00.082Z,37.81
2022-08-02T11:35:00.049Z,38.99
2022-08-02T11:36:00.000Z,37.49
2022-08-02T11:37:00.728Z,37.69
2022-08-02T11:37:59.990Z,37.20
2022-08-02T11:38:59.977Z,37.48
2022-08-02T11:39:59.979Z,36.88
2022-08-02T11:40:59.987Z,35.53
2022-08-02T11:42:00.924Z,38.30
2022-08-02T11:42:59.940Z,38.60
2022-08-02T11:43:59.909Z,41.33
2022-08-02T11:44:59.908Z,35.53
2022-08-02T11:45:59.889Z,38.10
2022-08-02T11:46:59.904Z,37.02
2022-08-02T11:47:59.877Z,37.10
2022-08-02T11:48:59.906Z,37.79
2022-08-02T11:49:59.850Z,36.10
2022-08-02T11:50:59.911Z,36.69
2022-08-02T11:51:59.830Z,35.41
2022-08-02T11:52:59.834Z,36.22
2022-08-02T11:53:59.804Z,37.01
2022-08-02T11:54:59.810Z,37.01
2022-08-02T11:55:59.781Z,38.01
2022-08-02T11:56:59.820Z,39.84
2022-08-02T11:58:04.770Z,37.63
2022-08-02T11:59:00.762Z,34.39
2022-08-02T11:59:59.762Z,37.42
2022-08-02T12:00:59.741Z,37.48
2022-08-02T12:01:59.721Z,35.41
2022-08-02T12:02:59.801Z,34.54
2022-08-02T12:03:59.705Z,34.15
2022-08-02T12:04:59.702Z,33.97
2022-08-02T12:06:05.848Z,34.67
2022-08-02T12:07:00.682Z,34.38
2022-08-02T12:08:00.355Z,34.78
2022-08-02T12:08:59.714Z,34.53
2022-08-02T12:09:59.643Z,38.24
2022-08-02T12:10:59.658Z,37.26
2022-08-02T12:11:59.616Z,35.18
2022-08-02T12:12:59.690Z,34.89
2022-08-02T12:13:59.594Z,34.67
2022-08-02T12:14:59.615Z,34.78
2022-08-02T12:15:59.583Z,36.63
2022-08-02T12:16:59.587Z,37.62
2022-08-02T12:17:59.566Z,34.41
2022-08-02T12:18:59.566Z,38.84
2022-08-02T12:19:59.535Z,33.53
2022-08-02T12:20:59.553Z,38.15
2022-08-02T12:21:59.521Z,35.88
2022-08-02T12:22:59.525Z,36.87
2022-08-02T12:24:01.350Z,38.54
2022-08-02T12:24:59.505Z,35.28
2022-08-02T12:25:59.466Z,36.65
2022-08-02T12:26:59.504Z,35.26
2022-08-02T12:27:59.455Z,36.42
2022-08-02T12:28:59.784Z,36.03
2022-08-02T12:29:59.555Z,36.52
2022-08-02T12:30:59.436Z,37.40
2022-08-02T12:31:59.968Z,34.93
2022-08-02T12:32:59.438Z,34.93
2022-08-02T12:33:59.396Z,35.23
2022-08-02T12:34:59.395Z,34.72
2022-08-02T12:35:59.397Z,34.56
2022-08-02T12:36:59.387Z,36.26
2022-08-02T12:37:59.807Z,37.92
2022-08-02T12:38:59.414Z,36.93
2022-08-02T12:39:59.357Z,38.09
2022-08-02T12:40:59.331Z,37.68
2022-08-02T12:41:59.388Z,37.07
2022-08-02T12:42:59.318Z,34.80
2022-08-02T12:43:59.267Z,34.41
2022-08-02T12:44:59.300Z,33.36
2022-08-02T12:45:59.290Z,34.20
2022-08-02T12:46:59.277Z,35.20
2022-08-02T12:47:59.256Z,38.54
2022-08-02T12:49:19.139Z,35.21
2022-08-02T12:50:00.399Z,37.48
2022-08-02T12:50:59.228Z,36.69
2022-08-02T12:52:02.118Z,36.69